Casstown, OH

09:20 PM EDT on aprilie 01, 2015 (GMT -0400)
Springfield-Beckley Municipal | | Change Station
CLOSE
Current Station
Aeroport
Location: Springfield,
Elevation: 1050 ft
Nearby Weather Stations

Elev 1050 ft 39.84 °N, 83.84 °W | Updated 24 minutes ago

Cer parţial noros
Cer parţial noros
55 °F
Feels Like 55 °F
N
6
Vânt variabil Vânt from SE

astăzi
High -- | Low -- °F
--% Chance of Precip.
Ieri
High -- | Low -- °F
Precip. -- inch
7:20 AM 8:00 PM
Lună în creştere, 95% visible
Presiunea 30.11 inch
Vizibilitatea 8.0 mile
Nori Cer senin
Punctul de rouă 33 °F
Umiditatea 43%
Precipitaţii 0.00 inch
Adâncimea zăpezii Not available.
UV 0 out of 12
Pollen 10.30 out of 12
Calitatea aerului Not available.
Flu Activity Not available.
METAR KSGH 020056Z AUTO 14005KT 8SM CLR 13/01 A3009 RMK AO2 T01270005 SLP195

More Conditions Fewer Conditions

Presiunea 30.11 inch
Vizibilitatea 8.0 mile
Nori Cer senin
Punctul de rouă 33 °F
Umiditatea 43%
Precipitaţii 0.00 inch
Adâncimea zăpezii Not available.
UV 0 out of 12
Pollen 10.30 out of 12
Calitatea aerului Not available.
Flu Activity Not available.
METAR KSGH 020056Z AUTO 14005KT 8SM CLR 13/01 A3009 RMK AO2 T01270005 SLP195

More Conditions Fewer Conditions

10-Day Weather Forecast

Almanac

Astronomie

Apr. 01, 2015 Răsărit Apus
Timpul Actual
Crepusculul Civil
Crepusculul nautic
Răsărit Astronomic
Luna
Durata zilei lumină
Lungimea zilei
Tomorrow will be .
, % of the Moon is Illuminated

Extremele de azi

State Highs State Lows

Community

WunderPhotos

Upload Photos

1,810,142 photos uploaded!

WunderBlogs® & News

Nearby

Calitatea aerului

  Calitatea aerului Index de calitate a aerului Poluat
Not available.

Adâncimea zapezii

Station Depth Elevation

Earthquake Activity

Oraş Distance Mag. Time & Date
Minimum magnitude displayed is 2.5.

Coastal Water Temperatures

Locul Temperatura

Stations

Nearby Weather Stations

Locaţia staţiei Temp Vânt rece Punctul de rouă Umiditatea Vânt Precip. Elev Actualizare Type